sensor_id;sensor_type;location;lat;lon;timestamp;P1;durP1;ratioP1;P2;durP2;ratioP2
34497;SDS011;20744;50.938;7.286;2023-12-14T00:00:55;18.83;;;11.50;;
34497;SDS011;20744;50.938;7.286;2023-12-14T00:03:23;20.02;;;12.18;;
34497;SDS011;20744;50.938;7.286;2023-12-14T00:05:50;21.60;;;11.32;;
34497;SDS011;20744;50.938;7.286;2023-12-14T00:08:17;18.23;;;10.15;;
34497;SDS011;20744;50.938;7.286;2023-12-14T00:10:45;20.23;;;10.00;;
34497;SDS011;20744;50.938;7.286;2023-12-14T00:13:13;15.48;;;10.18;;
34497;SDS011;20744;50.938;7.286;2023-12-14T00:15:41;20.58;;;9.82;;
34497;SDS011;20744;50.938;7.286;2023-12-14T00:18:09;19.15;;;9.30;;
34497;SDS011;20744;50.938;7.286;2023-12-14T00:20:37;16.00;;;9.30;;
34497;SDS011;20744;50.938;7.286;2023-12-14T00:23:04;15.00;;;8.57;;
34497;SDS011;20744;50.938;7.286;2023-12-14T00:25:32;17.58;;;9.43;;
34497;SDS011;20744;50.938;7.286;2023-12-14T00:27:59;22.08;;;8.95;;
34497;SDS011;20744;50.938;7.286;2023-12-14T00:30:27;19.65;;;9.75;;
34497;SDS011;20744;50.938;7.286;2023-12-14T00:32:55;17.73;;;10.25;;
34497;SDS011;20744;50.938;7.286;2023-12-14T00:35:22;19.95;;;9.90;;
34497;SDS011;20744;50.938;7.286;2023-12-14T00:37:49;15.13;;;9.60;;
34497;SDS011;20744;50.938;7.286;2023-12-14T00:40:17;22.35;;;11.10;;
34497;SDS011;20744;50.938;7.286;2023-12-14T00:42:44;21.38;;;10.30;;
34497;SDS011;20744;50.938;7.286;2023-12-14T00:45:14;19.30;;;10.23;;
34497;SDS011;20744;50.938;7.286;2023-12-14T00:47:42;18.25;;;9.27;;
34497;SDS011;20744;50.938;7.286;2023-12-14T00:50:10;19.77;;;10.10;;
34497;SDS011;20744;50.938;7.286;2023-12-14T00:52:37;20.02;;;9.85;;
34497;SDS011;20744;50.938;7.286;2023-12-14T00:55:06;19.33;;;10.02;;
34497;SDS011;20744;50.938;7.286;2023-12-14T00:57:34;17.85;;;9.57;;
34497;SDS011;20744;50.938;7.286;2023-12-14T01:00:04;14.13;;;8.95;;
34497;SDS011;20744;50.938;7.286;2023-12-14T01:02:35;17.17;;;9.23;;
34497;SDS011;20744;50.938;7.286;2023-12-14T01:05:04;16.95;;;9.48;;
34497;SDS011;20744;50.938;7.286;2023-12-14T01:07:32;18.27;;;9.88;;
34497;SDS011;20744;50.938;7.286;2023-12-14T01:09:59;16.23;;;9.75;;
34497;SDS011;20744;50.938;7.286;2023-12-14T01:12:26;16.98;;;10.48;;
34497;SDS011;20744;50.938;7.286;2023-12-14T01:14:56;18.38;;;10.50;;
34497;SDS011;20744;50.938;7.286;2023-12-14T01:17:24;19.23;;;11.05;;
34497;SDS011;20744;50.938;7.286;2023-12-14T01:19:54;17.55;;;10.57;;
34497;SDS011;20744;50.938;7.286;2023-12-14T01:22:22;19.42;;;10.57;;
34497;SDS011;20744;50.938;7.286;2023-12-14T01:24:50;16.15;;;9.77;;
34497;SDS011;20744;50.938;7.286;2023-12-14T01:27:19;18.45;;;10.77;;
34497;SDS011;20744;50.938;7.286;2023-12-14T01:29:47;20.90;;;9.95;;
34497;SDS011;20744;50.938;7.286;2023-12-14T01:32:14;19.45;;;10.20;;
34497;SDS011;20744;50.938;7.286;2023-12-14T01:34:41;22.83;;;9.65;;
34497;SDS011;20744;50.938;7.286;2023-12-14T01:37:09;16.73;;;9.68;;
34497;SDS011;20744;50.938;7.286;2023-12-14T01:39:37;16.35;;;9.88;;
34497;SDS011;20744;50.938;7.286;2023-12-14T01:42:04;17.83;;;10.57;;
34497;SDS011;20744;50.938;7.286;2023-12-14T01:44:32;28.48;;;10.88;;
34497;SDS011;20744;50.938;7.286;2023-12-14T01:46:59;17.38;;;10.13;;
34497;SDS011;20744;50.938;7.286;2023-12-14T01:49:26;14.88;;;9.52;;
34497;SDS011;20744;50.938;7.286;2023-12-14T01:51:54;16.17;;;9.95;;
34497;SDS011;20744;50.938;7.286;2023-12-14T01:54:21;16.58;;;10.13;;
34497;SDS011;20744;50.938;7.286;2023-12-14T01:56:50;21.52;;;10.82;;
34497;SDS011;20744;50.938;7.286;2023-12-14T01:59:18;20.73;;;11.68;;
34497;SDS011;20744;50.938;7.286;2023-12-14T02:01:52;14.52;;;10.05;;
34497;SDS011;20744;50.938;7.286;2023-12-14T02:04:21;17.10;;;10.27;;
34497;SDS011;20744;50.938;7.286;2023-12-14T02:06:49;16.48;;;9.38;;
34497;SDS011;20744;50.938;7.286;2023-12-14T02:09:16;17.42;;;10.30;;
34497;SDS011;20744;50.938;7.286;2023-12-14T02:11:44;18.23;;;11.43;;
34497;SDS011;20744;50.938;7.286;2023-12-14T02:14:12;19.25;;;11.15;;
34497;SDS011;20744;50.938;7.286;2023-12-14T02:16:40;20.75;;;12.45;;
34497;SDS011;20744;50.938;7.286;2023-12-14T02:19:07;21.30;;;10.50;;
34497;SDS011;20744;50.938;7.286;2023-12-14T02:21:34;25.70;;;11.50;;
34497;SDS011;20744;50.938;7.286;2023-12-14T02:24:03;22.17;;;11.85;;
34497;SDS011;20744;50.938;7.286;2023-12-14T02:26:30;16.92;;;10.02;;
34497;SDS011;20744;50.938;7.286;2023-12-14T02:28:58;20.05;;;11.65;;
34497;SDS011;20744;50.938;7.286;2023-12-14T02:31:25;20.05;;;12.00;;
34497;SDS011;20744;50.938;7.286;2023-12-14T02:33:52;17.42;;;10.35;;
34497;SDS011;20744;50.938;7.286;2023-12-14T02:36:20;21.00;;;11.13;;
34497;SDS011;20744;50.938;7.286;2023-12-14T02:38:47;17.95;;;9.95;;
34497;SDS011;20744;50.938;7.286;2023-12-14T02:41:16;16.52;;;10.15;;
34497;SDS011;20744;50.938;7.286;2023-12-14T02:43:43;14.32;;;9.85;;
34497;SDS011;20744;50.938;7.286;2023-12-14T02:46:10;15.35;;;9.55;;
34497;SDS011;20744;50.938;7.286;2023-12-14T02:48:40;19.35;;;10.27;;
34497;SDS011;20744;50.938;7.286;2023-12-14T02:51:12;19.88;;;10.90;;
34497;SDS011;20744;50.938;7.286;2023-12-14T02:53:39;16.00;;;10.68;;
34497;SDS011;20744;50.938;7.286;2023-12-14T02:56:08;21.35;;;10.02;;
34497;SDS011;20744;50.938;7.286;2023-12-14T02:58:37;27.77;;;11.95;;
34497;SDS011;20744;50.938;7.286;2023-12-14T03:01:05;21.00;;;10.65;;
34497;SDS011;20744;50.938;7.286;2023-12-14T03:03:32;19.48;;;10.13;;
34497;SDS011;20744;50.938;7.286;2023-12-14T03:05:59;19.45;;;10.13;;
34497;SDS011;20744;50.938;7.286;2023-12-14T03:08:26;24.08;;;11.57;;
34497;SDS011;20744;50.938;7.286;2023-12-14T03:10:54;20.27;;;10.75;;
34497;SDS011;20744;50.938;7.286;2023-12-14T03:13:21;17.92;;;10.38;;
34497;SDS011;20744;50.938;7.286;2023-12-14T03:15:50;19.45;;;10.35;;
34497;SDS011;20744;50.938;7.286;2023-12-14T03:18:17;17.25;;;10.82;;
34497;SDS011;20744;50.938;7.286;2023-12-14T03:20:44;20.90;;;11.63;;
34497;SDS011;20744;50.938;7.286;2023-12-14T03:23:11;24.73;;;13.43;;
34497;SDS011;20744;50.938;7.286;2023-12-14T03:25:39;23.80;;;14.45;;
34497;SDS011;20744;50.938;7.286;2023-12-14T03:28:06;25.35;;;12.90;;
34497;SDS011;20744;50.938;7.286;2023-12-14T03:30:34;26.27;;;14.07;;
34497;SDS011;20744;50.938;7.286;2023-12-14T03:33:03;26.45;;;13.65;;
34497;SDS011;20744;50.938;7.286;2023-12-14T03:35:32;31.45;;;14.93;;
34497;SDS011;20744;50.938;7.286;2023-12-14T03:38:01;32.35;;;16.33;;
34497;SDS011;20744;50.938;7.286;2023-12-14T03:40:28;41.20;;;17.92;;
34497;SDS011;20744;50.938;7.286;2023-12-14T03:42:57;44.47;;;18.70;;
34497;SDS011;20744;50.938;7.286;2023-12-14T03:45:24;54.10;;;20.60;;
34497;SDS011;20744;50.938;7.286;2023-12-14T03:47:52;57.40;;;20.52;;
34497;SDS011;20744;50.938;7.286;2023-12-14T03:50:20;55.05;;;19.85;;
34497;SDS011;20744;50.938;7.286;2023-12-14T03:52:47;56.05;;;20.45;;
34497;SDS011;20744;50.938;7.286;2023-12-14T03:55:15;49.90;;;20.65;;
34497;SDS011;20744;50.938;7.286;2023-12-14T03:57:42;47.88;;;19.08;;
34497;SDS011;20744;50.938;7.286;2023-12-14T04:00:10;49.95;;;18.80;;
34497;SDS011;20744;50.938;7.286;2023-12-14T04:02:38;44.15;;;19.75;;
34497;SDS011;20744;50.938;7.286;2023-12-14T04:05:06;43.45;;;17.92;;
34497;SDS011;20744;50.938;7.286;2023-12-14T04:07:35;45.97;;;19.40;;
34497;SDS011;20744;50.938;7.286;2023-12-14T04:10:05;48.10;;;19.45;;
34497;SDS011;20744;50.938;7.286;2023-12-14T04:12:33;43.67;;;19.30;;
34497;SDS011;20744;50.938;7.286;2023-12-14T04:15:00;43.92;;;18.15;;
34497;SDS011;20744;50.938;7.286;2023-12-14T04:17:28;40.78;;;18.25;;
34497;SDS011;20744;50.938;7.286;2023-12-14T04:19:55;35.60;;;15.75;;
34497;SDS011;20744;50.938;7.286;2023-12-14T04:22:22;33.85;;;14.85;;
34497;SDS011;20744;50.938;7.286;2023-12-14T04:24:51;37.80;;;16.13;;
34497;SDS011;20744;50.938;7.286;2023-12-14T04:27:18;31.85;;;15.20;;
34497;SDS011;20744;50.938;7.286;2023-12-14T04:29:46;31.13;;;15.07;;
34497;SDS011;20744;50.938;7.286;2023-12-14T04:32:13;28.75;;;14.25;;
34497;SDS011;20744;50.938;7.286;2023-12-14T04:34:40;30.23;;;15.32;;
34497;SDS011;20744;50.938;7.286;2023-12-14T04:37:07;28.65;;;14.48;;
34497;SDS011;20744;50.938;7.286;2023-12-14T04:39:35;27.58;;;13.10;;
34497;SDS011;20744;50.938;7.286;2023-12-14T04:42:04;24.75;;;11.88;;
34497;SDS011;20744;50.938;7.286;2023-12-14T04:44:31;27.67;;;12.63;;
34497;SDS011;20744;50.938;7.286;2023-12-14T04:46:59;23.55;;;12.90;;
34497;SDS011;20744;50.938;7.286;2023-12-14T04:49:26;24.95;;;11.93;;
34497;SDS011;20744;50.938;7.286;2023-12-14T04:51:53;22.42;;;11.65;;
34497;SDS011;20744;50.938;7.286;2023-12-14T04:54:20;21.52;;;11.05;;
34497;SDS011;20744;50.938;7.286;2023-12-14T04:56:48;24.50;;;10.88;;
34497;SDS011;20744;50.938;7.286;2023-12-14T04:59:16;19.60;;;9.60;;
34497;SDS011;20744;50.938;7.286;2023-12-14T05:01:44;16.38;;;9.35;;
34497;SDS011;20744;50.938;7.286;2023-12-14T05:04:11;18.70;;;9.63;;
34497;SDS011;20744;50.938;7.286;2023-12-14T05:06:38;18.40;;;10.00;;
34497;SDS011;20744;50.938;7.286;2023-12-14T05:09:05;17.52;;;9.20;;
34497;SDS011;20744;50.938;7.286;2023-12-14T05:11:33;13.93;;;8.30;;
34497;SDS011;20744;50.938;7.286;2023-12-14T05:14:00;18.92;;;8.88;;
34497;SDS011;20744;50.938;7.286;2023-12-14T05:16:28;18.00;;;7.50;;
34497;SDS011;20744;50.938;7.286;2023-12-14T05:18:56;13.25;;;7.45;;
34497;SDS011;20744;50.938;7.286;2023-12-14T05:21:24;12.93;;;7.05;;
34497;SDS011;20744;50.938;7.286;2023-12-14T05:23:51;12.52;;;7.15;;
34497;SDS011;20744;50.938;7.286;2023-12-14T05:26:19;14.15;;;7.15;;
34497;SDS011;20744;50.938;7.286;2023-12-14T05:28:46;13.05;;;6.75;;
34497;SDS011;20744;50.938;7.286;2023-12-14T05:31:13;17.17;;;6.88;;
34497;SDS011;20744;50.938;7.286;2023-12-14T05:33:42;10.73;;;6.65;;
34497;SDS011;20744;50.938;7.286;2023-12-14T05:36:10;11.57;;;5.85;;
34497;SDS011;20744;50.938;7.286;2023-12-14T05:38:37;8.98;;;5.28;;
34497;SDS011;20744;50.938;7.286;2023-12-14T05:41:05;11.63;;;5.75;;
34497;SDS011;20744;50.938;7.286;2023-12-14T05:43:32;7.03;;;4.57;;
34497;SDS011;20744;50.938;7.286;2023-12-14T05:45:59;7.60;;;4.68;;
34497;SDS011;20744;50.938;7.286;2023-12-14T05:48:27;9.52;;;5.03;;
34497;SDS011;20744;50.938;7.286;2023-12-14T05:50:56;8.90;;;4.60;;
34497;SDS011;20744;50.938;7.286;2023-12-14T05:53:24;6.88;;;4.05;;
34497;SDS011;20744;50.938;7.286;2023-12-14T05:55:51;8.00;;;4.55;;
34497;SDS011;20744;50.938;7.286;2023-12-14T05:58:18;7.78;;;4.28;;
34497;SDS011;20744;50.938;7.286;2023-12-14T06:00:45;9.02;;;5.50;;
34497;SDS011;20744;50.938;7.286;2023-12-14T06:03:13;12.30;;;6.15;;
34497;SDS011;20744;50.938;7.286;2023-12-14T06:05:40;12.02;;;6.28;;
34497;SDS011;20744;50.938;7.286;2023-12-14T06:08:09;11.88;;;6.68;;
34497;SDS011;20744;50.938;7.286;2023-12-14T06:10:36;13.20;;;7.13;;
34497;SDS011;20744;50.938;7.286;2023-12-14T06:13:03;13.52;;;7.05;;
34497;SDS011;20744;50.938;7.286;2023-12-14T06:15:30;16.48;;;7.88;;
34497;SDS011;20744;50.938;7.286;2023-12-14T06:17:58;14.52;;;8.27;;
34497;SDS011;20744;50.938;7.286;2023-12-14T06:20:25;16.83;;;9.07;;
34497;SDS011;20744;50.938;7.286;2023-12-14T06:22:52;16.77;;;9.15;;
34497;SDS011;20744;50.938;7.286;2023-12-14T06:25:21;17.02;;;9.27;;
34497;SDS011;20744;50.938;7.286;2023-12-14T06:27:50;17.67;;;8.75;;
34497;SDS011;20744;50.938;7.286;2023-12-14T06:30:18;17.52;;;8.93;;
34497;SDS011;20744;50.938;7.286;2023-12-14T06:32:45;18.35;;;9.13;;
34497;SDS011;20744;50.938;7.286;2023-12-14T06:35:12;19.88;;;9.68;;
34497;SDS011;20744;50.938;7.286;2023-12-14T06:37:40;17.85;;;9.32;;
34497;SDS011;20744;50.938;7.286;2023-12-14T06:40:08;19.90;;;9.82;;
34497;SDS011;20744;50.938;7.286;2023-12-14T06:42:37;17.55;;;9.48;;
34497;SDS011;20744;50.938;7.286;2023-12-14T06:45:04;20.13;;;9.70;;
34497;SDS011;20744;50.938;7.286;2023-12-14T06:47:32;17.25;;;8.93;;
34497;SDS011;20744;50.938;7.286;2023-12-14T06:49:59;17.20;;;9.43;;
34497;SDS011;20744;50.938;7.286;2023-12-14T06:52:26;17.33;;;9.40;;
34497;SDS011;20744;50.938;7.286;2023-12-14T06:54:54;15.90;;;8.95;;
34497;SDS011;20744;50.938;7.286;2023-12-14T06:57:21;17.05;;;8.65;;
34497;SDS011;20744;50.938;7.286;2023-12-14T06:59:50;18.50;;;9.30;;
34497;SDS011;20744;50.938;7.286;2023-12-14T07:02:18;17.15;;;9.32;;
34497;SDS011;20744;50.938;7.286;2023-12-14T07:04:45;15.60;;;9.38;;
34497;SDS011;20744;50.938;7.286;2023-12-14T07:07:13;16.27;;;8.80;;
34497;SDS011;20744;50.938;7.286;2023-12-14T07:09:40;16.20;;;9.02;;
34497;SDS011;20744;50.938;7.286;2023-12-14T07:12:08;17.33;;;9.25;;
34497;SDS011;20744;50.938;7.286;2023-12-14T07:14:36;15.00;;;8.75;;
34497;SDS011;20744;50.938;7.286;2023-12-14T07:17:05;16.25;;;9.15;;
34497;SDS011;20744;50.938;7.286;2023-12-14T07:19:32;19.30;;;9.43;;
34497;SDS011;20744;50.938;7.286;2023-12-14T07:22:00;17.05;;;8.43;;
34497;SDS011;20744;50.938;7.286;2023-12-14T07:24:28;19.23;;;9.27;;
34497;SDS011;20744;50.938;7.286;2023-12-14T07:26:56;17.30;;;9.43;;
34497;SDS011;20744;50.938;7.286;2023-12-14T07:29:23;16.95;;;9.02;;
34497;SDS011;20744;50.938;7.286;2023-12-14T07:31:50;16.10;;;9.18;;
34497;SDS011;20744;50.938;7.286;2023-12-14T07:34:19;17.20;;;10.18;;
34497;SDS011;20744;50.938;7.286;2023-12-14T07:36:46;17.48;;;9.15;;
34497;SDS011;20744;50.938;7.286;2023-12-14T07:39:13;17.33;;;9.38;;
34497;SDS011;20744;50.938;7.286;2023-12-14T07:41:41;22.90;;;10.63;;
34497;SDS011;20744;50.938;7.286;2023-12-14T07:44:08;20.02;;;9.77;;
34497;SDS011;20744;50.938;7.286;2023-12-14T07:46:35;20.42;;;10.30;;
34497;SDS011;20744;50.938;7.286;2023-12-14T07:49:06;20.42;;;9.32;;
34497;SDS011;20744;50.938;7.286;2023-12-14T07:51:35;17.58;;;10.00;;
34497;SDS011;20744;50.938;7.286;2023-12-14T07:54:02;18.67;;;10.40;;
34497;SDS011;20744;50.938;7.286;2023-12-14T07:56:29;17.50;;;10.40;;
34497;SDS011;20744;50.938;7.286;2023-12-14T07:59:01;22.23;;;10.40;;
34497;SDS011;20744;50.938;7.286;2023-12-14T08:01:31;18.08;;;10.38;;
34497;SDS011;20744;50.938;7.286;2023-12-14T08:03:58;17.83;;;9.95;;
34497;SDS011;20744;50.938;7.286;2023-12-14T08:06:26;23.50;;;11.05;;
34497;SDS011;20744;50.938;7.286;2023-12-14T08:08:54;21.17;;;10.65;;
34497;SDS011;20744;50.938;7.286;2023-12-14T08:11:23;17.27;;;9.98;;
34497;SDS011;20744;50.938;7.286;2023-12-14T08:13:50;18.50;;;10.68;;
34497;SDS011;20744;50.938;7.286;2023-12-14T08:16:17;22.30;;;12.25;;
34497;SDS011;20744;50.938;7.286;2023-12-14T08:18:44;25.58;;;13.02;;
34497;SDS011;20744;50.938;7.286;2023-12-14T08:21:13;22.85;;;12.80;;
34497;SDS011;20744;50.938;7.286;2023-12-14T08:23:40;26.52;;;12.85;;
34497;SDS011;20744;50.938;7.286;2023-12-14T08:26:09;25.52;;;13.63;;
34497;SDS011;20744;50.938;7.286;2023-12-14T08:28:41;29.02;;;13.88;;
34497;SDS011;20744;50.938;7.286;2023-12-14T08:31:09;32.95;;;15.32;;
34497;SDS011;20744;50.938;7.286;2023-12-14T08:33:37;32.45;;;16.25;;
34497;SDS011;20744;50.938;7.286;2023-12-14T08:36:04;34.13;;;15.85;;
34497;SDS011;20744;50.938;7.286;2023-12-14T08:38:32;32.08;;;16.15;;
34497;SDS011;20744;50.938;7.286;2023-12-14T08:40:59;33.25;;;15.60;;
34497;SDS011;20744;50.938;7.286;2023-12-14T08:43:32;30.67;;;15.98;;
34497;SDS011;20744;50.938;7.286;2023-12-14T08:45:59;28.92;;;15.20;;
34497;SDS011;20744;50.938;7.286;2023-12-14T08:48:26;28.17;;;14.05;;
34497;SDS011;20744;50.938;7.286;2023-12-14T08:50:53;29.70;;;14.10;;
34497;SDS011;20744;50.938;7.286;2023-12-14T08:53:23;29.35;;;14.55;;
34497;SDS011;20744;50.938;7.286;2023-12-14T08:55:51;29.13;;;14.35;;
34497;SDS011;20744;50.938;7.286;2023-12-14T08:58:18;31.55;;;15.05;;
34497;SDS011;20744;50.938;7.286;2023-12-14T09:00:47;27.17;;;14.05;;
34497;SDS011;20744;50.938;7.286;2023-12-14T09:03:17;28.38;;;14.25;;
34497;SDS011;20744;50.938;7.286;2023-12-14T09:05:48;28.30;;;14.35;;
34497;SDS011;20744;50.938;7.286;2023-12-14T09:08:15;38.33;;;18.75;;
34497;SDS011;20744;50.938;7.286;2023-12-14T09:10:43;36.47;;;17.80;;
34497;SDS011;20744;50.938;7.286;2023-12-14T09:13:10;36.70;;;18.23;;
34497;SDS011;20744;50.938;7.286;2023-12-14T09:15:37;41.63;;;19.15;;
34497;SDS011;20744;50.938;7.286;2023-12-14T09:18:06;42.13;;;19.58;;
34497;SDS011;20744;50.938;7.286;2023-12-14T09:20:34;41.35;;;19.65;;
34497;SDS011;20744;50.938;7.286;2023-12-14T09:23:02;43.55;;;20.92;;
34497;SDS011;20744;50.938;7.286;2023-12-14T09:25:30;42.67;;;19.80;;
34497;SDS011;20744;50.938;7.286;2023-12-14T09:27:58;49.53;;;21.42;;
34497;SDS011;20744;50.938;7.286;2023-12-14T09:30:29;47.47;;;21.25;;
34497;SDS011;20744;50.938;7.286;2023-12-14T09:32:59;48.38;;;21.85;;
34497;SDS011;20744;50.938;7.286;2023-12-14T09:35:28;48.15;;;21.55;;
34497;SDS011;20744;50.938;7.286;2023-12-14T09:37:56;46.30;;;20.67;;
34497;SDS011;20744;50.938;7.286;2023-12-14T09:40:27;45.42;;;20.55;;
34497;SDS011;20744;50.938;7.286;2023-12-14T09:42:54;42.15;;;20.38;;
34497;SDS011;20744;50.938;7.286;2023-12-14T09:45:22;40.20;;;18.48;;
34497;SDS011;20744;50.938;7.286;2023-12-14T09:47:50;36.65;;;17.67;;
34497;SDS011;20744;50.938;7.286;2023-12-14T09:50:18;36.28;;;17.33;;
34497;SDS011;20744;50.938;7.286;2023-12-14T09:52:47;40.75;;;18.77;;
34497;SDS011;20744;50.938;7.286;2023-12-14T09:55:14;41.22;;;18.63;;
34497;SDS011;20744;50.938;7.286;2023-12-14T09:57:42;43.35;;;18.83;;
34497;SDS011;20744;50.938;7.286;2023-12-14T10:00:09;40.05;;;17.90;;
34497;SDS011;20744;50.938;7.286;2023-12-14T10:02:39;42.28;;;18.08;;
34497;SDS011;20744;50.938;7.286;2023-12-14T10:05:07;39.75;;;17.65;;
34497;SDS011;20744;50.938;7.286;2023-12-14T10:07:38;38.17;;;16.60;;
34497;SDS011;20744;50.938;7.286;2023-12-14T10:10:10;39.47;;;17.65;;
34497;SDS011;20744;50.938;7.286;2023-12-14T10:12:49;38.03;;;17.85;;
34497;SDS011;20744;50.938;7.286;2023-12-14T10:15:17;32.50;;;15.45;;
34497;SDS011;20744;50.938;7.286;2023-12-14T10:17:45;35.10;;;16.17;;
34497;SDS011;20744;50.938;7.286;2023-12-14T10:20:18;33.85;;;16.58;;
34497;SDS011;20744;50.938;7.286;2023-12-14T10:22:48;36.05;;;16.83;;
34497;SDS011;20744;50.938;7.286;2023-12-14T10:25:19;36.30;;;16.83;;
34497;SDS011;20744;50.938;7.286;2023-12-14T10:27:46;39.65;;;18.23;;
34497;SDS011;20744;50.938;7.286;2023-12-14T10:30:14;46.25;;;19.17;;
34497;SDS011;20744;50.938;7.286;2023-12-14T10:32:41;55.08;;;22.13;;
34497;SDS011;20744;50.938;7.286;2023-12-14T10:35:11;51.05;;;20.65;;
34497;SDS011;20744;50.938;7.286;2023-12-14T10:37:41;57.17;;;22.45;;
34497;SDS011;20744;50.938;7.286;2023-12-14T10:40:10;51.33;;;22.33;;
34497;SDS011;20744;50.938;7.286;2023-12-14T10:42:39;56.40;;;22.65;;
34497;SDS011;20744;50.938;7.286;2023-12-14T10:45:12;57.58;;;22.13;;
34497;SDS011;20744;50.938;7.286;2023-12-14T10:47:42;52.60;;;23.00;;
34497;SDS011;20744;50.938;7.286;2023-12-14T10:50:10;56.45;;;23.42;;
34497;SDS011;20744;50.938;7.286;2023-12-14T10:52:40;62.00;;;24.60;;
34497;SDS011;20744;50.938;7.286;2023-12-14T10:55:09;62.60;;;23.90;;
34497;SDS011;20744;50.938;7.286;2023-12-14T10:57:39;58.85;;;23.45;;
34497;SDS011;20744;50.938;7.286;2023-12-14T11:00:07;54.67;;;22.88;;
34497;SDS011;20744;50.938;7.286;2023-12-14T11:02:39;58.55;;;23.00;;
34497;SDS011;20744;50.938;7.286;2023-12-14T11:05:08;53.08;;;22.60;;
34497;SDS011;20744;50.938;7.286;2023-12-14T11:07:43;55.83;;;23.10;;
34497;SDS011;20744;50.938;7.286;2023-12-14T11:10:11;60.65;;;24.17;;
34497;SDS011;20744;50.938;7.286;2023-12-14T11:12:40;59.90;;;23.45;;
34497;SDS011;20744;50.938;7.286;2023-12-14T11:15:20;59.63;;;24.05;;
34497;SDS011;20744;50.938;7.286;2023-12-14T11:20:39;69.60;;;24.92;;
34497;SDS011;20744;50.938;7.286;2023-12-14T11:23:14;60.05;;;24.85;;
34497;SDS011;20744;50.938;7.286;2023-12-14T11:25:42;69.43;;;25.20;;
34497;SDS011;20744;50.938;7.286;2023-12-14T11:28:11;60.50;;;25.13;;
34497;SDS011;20744;50.938;7.286;2023-12-14T11:30:38;65.45;;;25.33;;
34497;SDS011;20744;50.938;7.286;2023-12-14T11:33:06;64.85;;;24.17;;
34497;SDS011;20744;50.938;7.286;2023-12-14T11:35:32;69.20;;;26.17;;
34497;SDS011;20744;50.938;7.286;2023-12-14T11:37:59;65.50;;;25.05;;
34497;SDS011;20744;50.938;7.286;2023-12-14T11:40:30;55.65;;;23.20;;
34497;SDS011;20744;50.938;7.286;2023-12-14T11:42:58;53.40;;;23.15;;
34497;SDS011;20744;50.938;7.286;2023-12-14T11:45:27;56.53;;;22.08;;
34497;SDS011;20744;50.938;7.286;2023-12-14T11:47:54;49.17;;;21.80;;
34497;SDS011;20744;50.938;7.286;2023-12-14T11:50:21;51.95;;;21.50;;
34497;SDS011;20744;50.938;7.286;2023-12-14T11:52:49;51.80;;;21.42;;
34497;SDS011;20744;50.938;7.286;2023-12-14T11:55:17;53.25;;;22.08;;
34497;SDS011;20744;50.938;7.286;2023-12-14T11:57:45;50.53;;;21.98;;
34497;SDS011;20744;50.938;7.286;2023-12-14T12:00:13;47.45;;;21.92;;
34497;SDS011;20744;50.938;7.286;2023-12-14T12:02:46;46.30;;;20.77;;
34497;SDS011;20744;50.938;7.286;2023-12-14T12:05:13;49.65;;;21.05;;
34497;SDS011;20744;50.938;7.286;2023-12-14T12:07:44;41.55;;;18.55;;
34497;SDS011;20744;50.938;7.286;2023-12-14T12:10:11;39.88;;;18.08;;
34497;SDS011;20744;50.938;7.286;2023-12-14T12:12:38;40.97;;;19.98;;
34497;SDS011;20744;50.938;7.286;2023-12-14T12:15:06;36.92;;;18.23;;
34497;SDS011;20744;50.938;7.286;2023-12-14T12:17:34;41.03;;;19.02;;
34497;SDS011;20744;50.938;7.286;2023-12-14T12:20:05;40.30;;;18.23;;
34497;SDS011;20744;50.938;7.286;2023-12-14T12:22:33;43.45;;;19.77;;
34497;SDS011;20744;50.938;7.286;2023-12-14T12:25:00;43.67;;;20.42;;
34497;SDS011;20744;50.938;7.286;2023-12-14T12:27:27;39.80;;;19.58;;
34497;SDS011;20744;50.938;7.286;2023-12-14T12:29:54;48.28;;;21.33;;
34497;SDS011;20744;50.938;7.286;2023-12-14T12:32:22;46.33;;;21.02;;
34497;SDS011;20744;50.938;7.286;2023-12-14T12:34:49;43.67;;;20.85;;
34497;SDS011;20744;50.938;7.286;2023-12-14T12:37:19;42.45;;;20.73;;
34497;SDS011;20744;50.938;7.286;2023-12-14T12:39:47;44.47;;;22.52;;
34497;SDS011;20744;50.938;7.286;2023-12-14T12:42:15;39.70;;;20.25;;
34497;SDS011;20744;50.938;7.286;2023-12-14T12:44:42;45.83;;;21.33;;
34497;SDS011;20744;50.938;7.286;2023-12-14T12:47:10;44.45;;;21.67;;
34497;SDS011;20744;50.938;7.286;2023-12-14T12:49:37;44.15;;;21.75;;
34497;SDS011;20744;50.938;7.286;2023-12-14T12:52:05;44.35;;;20.92;;
34497;SDS011;20744;50.938;7.286;2023-12-14T12:54:34;45.65;;;21.98;;
34497;SDS011;20744;50.938;7.286;2023-12-14T12:57:01;48.28;;;22.60;;
34497;SDS011;20744;50.938;7.286;2023-12-14T12:59:28;44.38;;;20.88;;
34497;SDS011;20744;50.938;7.286;2023-12-14T13:01:55;45.00;;;21.80;;
34497;SDS011;20744;50.938;7.286;2023-12-14T13:04:23;43.45;;;21.83;;
34497;SDS011;20744;50.938;7.286;2023-12-14T13:06:51;40.30;;;21.10;;
34497;SDS011;20744;50.938;7.286;2023-12-14T13:09:19;42.38;;;20.63;;
34497;SDS011;20744;50.938;7.286;2023-12-14T13:11:48;44.25;;;21.42;;
34497;SDS011;20744;50.938;7.286;2023-12-14T13:14:15;44.85;;;22.58;;
34497;SDS011;20744;50.938;7.286;2023-12-14T13:16:43;42.67;;;22.25;;
34497;SDS011;20744;50.938;7.286;2023-12-14T13:19:11;43.30;;;22.20;;
34497;SDS011;20744;50.938;7.286;2023-12-14T13:21:38;49.95;;;22.77;;
34497;SDS011;20744;50.938;7.286;2023-12-14T13:24:06;46.05;;;23.65;;
34497;SDS011;20744;50.938;7.286;2023-12-14T13:26:33;42.53;;;23.40;;
34497;SDS011;20744;50.938;7.286;2023-12-14T13:29:02;43.38;;;23.92;;
34497;SDS011;20744;50.938;7.286;2023-12-14T13:31:29;44.40;;;22.85;;
34497;SDS011;20744;50.938;7.286;2023-12-14T13:33:56;41.17;;;22.73;;
34497;SDS011;20744;50.938;7.286;2023-12-14T13:36:24;41.60;;;21.90;;
34497;SDS011;20744;50.938;7.286;2023-12-14T13:38:51;43.92;;;22.95;;
34497;SDS011;20744;50.938;7.286;2023-12-14T13:41:19;45.33;;;22.83;;
34497;SDS011;20744;50.938;7.286;2023-12-14T13:43:46;40.05;;;22.08;;
34497;SDS011;20744;50.938;7.286;2023-12-14T13:46:15;39.40;;;21.40;;
34497;SDS011;20744;50.938;7.286;2023-12-14T13:48:42;38.20;;;20.98;;
34497;SDS011;20744;50.938;7.286;2023-12-14T13:51:09;38.25;;;19.83;;
34497;SDS011;20744;50.938;7.286;2023-12-14T13:53:36;43.75;;;21.08;;
34497;SDS011;20744;50.938;7.286;2023-12-14T13:56:05;37.92;;;21.08;;
34497;SDS011;20744;50.938;7.286;2023-12-14T13:58:32;38.60;;;20.40;;
34497;SDS011;20744;50.938;7.286;2023-12-14T14:01:03;38.38;;;21.30;;
34497;SDS011;20744;50.938;7.286;2023-12-14T14:03:33;36.78;;;20.33;;
34497;SDS011;20744;50.938;7.286;2023-12-14T14:06:03;29.92;;;17.42;;
34497;SDS011;20744;50.938;7.286;2023-12-14T14:08:30;32.55;;;17.80;;
34497;SDS011;20744;50.938;7.286;2023-12-14T14:10:58;28.10;;;15.20;;
34497;SDS011;20744;50.938;7.286;2023-12-14T14:13:25;29.52;;;16.85;;
34497;SDS011;20744;50.938;7.286;2023-12-14T14:15:52;29.88;;;15.45;;
34497;SDS011;20744;50.938;7.286;2023-12-14T14:18:20;30.00;;;16.17;;
34497;SDS011;20744;50.938;7.286;2023-12-14T14:20:49;28.63;;;16.42;;
34497;SDS011;20744;50.938;7.286;2023-12-14T14:23:16;27.35;;;15.98;;
34497;SDS011;20744;50.938;7.286;2023-12-14T14:25:43;31.92;;;16.60;;
34497;SDS011;20744;50.938;7.286;2023-12-14T14:28:10;30.25;;;15.50;;
34497;SDS011;20744;50.938;7.286;2023-12-14T14:30:38;28.08;;;15.63;;
34497;SDS011;20744;50.938;7.286;2023-12-14T14:33:05;23.02;;;13.65;;